Terminal Aerodrome Forecast
Issued by NWS

Home | Current Version | Previous Version | Text Only | Print | Product List | Glossary On
Versions: 1 2 3 4 5 6 7 8 9 10 11 12 13 14 15 16 17 18 19 20 21 22 23 24
000
FTUS43 KAPX 251121
TAFTVC
TAF
KTVC 251121Z 2512/2612 29013G22KT 4SM -SHSN SCT008 OVC015
      TEMPO 2514/2518 1SM -SHSN BLSN
     FM251800 29014G23KT 4SM -SHSN BLSN SCT015 OVC025
     FM260000 28012G21KT P6SM VCSH SCT025 OVC035=

USA.gov is the U.S. government's official web portal to all federal, state and local government web resources and services.